createdAt,value
2023-04-29T00:01:39.762Z,13.64
2023-04-29T00:04:07.462Z,13.60
2023-04-29T00:06:34.612Z,13.61
2023-04-29T00:09:01.923Z,13.59
2023-04-29T00:11:29.003Z,13.60
2023-04-29T00:13:56.301Z,13.60
2023-04-29T00:16:23.390Z,13.61
2023-04-29T00:18:50.711Z,13.63
2023-04-29T00:21:17.965Z,13.66
2023-04-29T00:23:46.088Z,13.70
2023-04-29T00:26:13.222Z,13.72
2023-04-29T00:28:40.681Z,13.72
2023-04-29T00:31:08.008Z,13.76
2023-04-29T00:33:35.359Z,13.76
2023-04-29T00:36:02.600Z,13.77
2023-04-29T00:38:29.834Z,13.82
2023-04-29T00:40:57.331Z,13.83
2023-04-29T00:43:24.885Z,13.82
2023-04-29T00:45:52.267Z,13.84
2023-04-29T00:48:19.602Z,13.84
2023-04-29T00:50:46.692Z,13.81
2023-04-29T00:53:14.790Z,13.82
2023-04-29T00:55:46.580Z,13.84
2023-04-29T00:58:14.001Z,13.83
2023-04-29T01:00:44.170Z,13.83
2023-04-29T01:03:14.077Z,13.84
2023-04-29T01:05:41.545Z,13.83
2023-04-29T01:08:59.496Z,13.80
2023-04-29T01:11:36.171Z,13.77
2023-04-29T01:14:05.252Z,13.73
2023-04-29T01:16:47.862Z,13.70
2023-04-29T01:19:55.296Z,13.66
2023-04-29T01:22:22.590Z,13.63
2023-04-29T01:24:50.480Z,13.59
2023-04-29T01:27:35.497Z,13.59
2023-04-29T01:30:39.261Z,13.57
2023-04-29T01:33:28.479Z,13.53
2023-04-29T01:36:14.336Z,13.50
2023-04-29T01:38:47.749Z,13.45
2023-04-29T01:41:23.738Z,13.43
2023-04-29T01:43:52.895Z,13.42
2023-04-29T01:46:20.466Z,13.42
2023-04-29T01:48:47.807Z,13.43
2023-04-29T01:51:15.074Z,13.44
2023-04-29T01:53:42.034Z,13.45
2023-04-29T01:56:09.377Z,13.43
2023-04-29T01:58:36.557Z,13.42
2023-04-29T02:01:03.916Z,13.40
2023-04-29T02:03:31.032Z,13.40
2023-04-29T02:05:59.310Z,13.37
2023-04-29T02:08:26.538Z,13.37
2023-04-29T02:10:59.325Z,13.41
2023-04-29T02:13:27.022Z,13.46
2023-04-29T02:15:54.243Z,13.42
2023-04-29T02:18:21.926Z,13.40
2023-04-29T02:20:51.701Z,13.39
2023-04-29T02:23:18.874Z,13.43
2023-04-29T02:25:46.096Z,13.44
2023-04-29T02:28:13.147Z,13.44
2023-04-29T02:30:40.472Z,13.43
2023-04-29T02:33:08.804Z,13.43
2023-04-29T02:35:36.352Z,13.44
2023-04-29T02:38:03.473Z,13.43
2023-04-29T02:40:30.773Z,13.41
2023-04-29T02:42:57.891Z,13.43
2023-04-29T02:45:25.412Z,13.46
2023-04-29T02:47:52.357Z,13.48
2023-04-29T02:50:19.660Z,13.51
2023-04-29T02:52:46.664Z,13.50
2023-04-29T02:55:14.086Z,13.49
2023-04-29T02:57:41.340Z,13.48
2023-04-29T03:00:10.088Z,13.46
2023-04-29T03:02:37.732Z,13.44
2023-04-29T03:05:06.201Z,13.43
2023-04-29T03:07:33.107Z,13.42
2023-04-29T03:10:00.696Z,13.39
2023-04-29T03:12:27.658Z,13.34
2023-04-29T03:14:54.868Z,13.32
2023-04-29T03:17:22.056Z,13.28
2023-04-29T03:19:49.440Z,13.28
2023-04-29T03:22:16.441Z,13.29
2023-04-29T03:24:44.698Z,13.30
2023-04-29T03:27:11.686Z,13.30
2023-04-29T03:29:38.905Z,13.29
2023-04-29T03:32:05.981Z,13.30
2023-04-29T03:34:33.297Z,13.27
2023-04-29T03:37:00.205Z,13.28
2023-04-29T03:39:32.251Z,13.29
2023-04-29T03:41:59.880Z,13.33
2023-04-29T03:44:29.245Z,13.34
2023-04-29T03:46:56.199Z,13.33
2023-04-29T03:49:23.833Z,13.38
2023-04-29T03:51:51.040Z,13.38
2023-04-29T03:54:18.520Z,13.42
2023-04-29T03:56:45.645Z,13.46
2023-04-29T03:59:13.009Z,13.45
2023-04-29T04:01:39.957Z,13.44
2023-04-29T04:04:07.602Z,13.41
2023-04-29T04:06:34.604Z,13.37
2023-04-29T04:09:01.721Z,13.33
2023-04-29T04:11:28.959Z,13.28
2023-04-29T04:13:56.326Z,13.24
2023-04-29T04:16:23.467Z,13.21
2023-04-29T04:18:50.914Z,13.19
2023-04-29T04:21:17.918Z,13.18
2023-04-29T04:23:45.200Z,13.14
2023-04-29T04:26:12.261Z,13.13
2023-04-29T04:28:41.799Z,13.14
2023-04-29T04:31:09.078Z,13.14
2023-04-29T04:33:36.567Z,13.12
2023-04-29T04:36:03.819Z,13.12
2023-04-29T04:38:33.109Z,13.13
2023-04-29T04:41:00.693Z,13.14
2023-04-29T04:43:28.007Z,13.14
2023-04-29T04:45:54.962Z,13.14
2023-04-29T04:48:22.222Z,13.14
2023-04-29T04:50:49.290Z,13.12
2023-04-29T04:53:17.512Z,13.14
2023-04-29T04:55:44.525Z,13.16
2023-04-29T04:58:11.855Z,13.21
2023-04-29T05:00:39.038Z,13.23
2023-04-29T05:03:06.468Z,13.23
2023-04-29T05:05:33.950Z,13.21
2023-04-29T05:08:01.468Z,13.19
2023-04-29T05:10:28.608Z,13.18
2023-04-29T05:12:56.440Z,13.16
2023-04-29T05:15:23.459Z,13.15
2023-04-29T05:17:50.934Z,13.17
2023-04-29T05:20:18.001Z,13.20
2023-04-29T05:22:45.235Z,13.21
2023-04-29T05:25:12.289Z,13.26
2023-04-29T05:27:40.144Z,13.33
2023-04-29T05:30:07.968Z,13.39
2023-04-29T05:32:35.199Z,13.43
2023-04-29T05:35:03.067Z,13.45
2023-04-29T05:37:32.159Z,13.51
2023-04-29T05:39:59.118Z,13.55
2023-04-29T05:42:26.403Z,13.61
2023-04-29T05:44:53.926Z,13.64
2023-04-29T05:47:21.721Z,13.66
2023-04-29T05:49:49.486Z,13.66
2023-04-29T05:52:16.818Z,13.67
2023-04-29T05:54:44.016Z,13.73
2023-04-29T05:57:11.287Z,13.78
2023-04-29T05:59:38.324Z,13.85
2023-04-29T06:02:05.684Z,13.91
2023-04-29T06:04:32.951Z,13.97
2023-04-29T06:07:00.489Z,13.97
2023-04-29T06:09:28.247Z,13.95
2023-04-29T06:11:56.534Z,13.93
2023-04-29T06:14:23.910Z,13.95
2023-04-29T06:16:51.330Z,14.02
2023-04-29T06:19:18.462Z,14.08
2023-04-29T06:21:45.944Z,14.20
2023-04-29T06:24:13.124Z,14.22
2023-04-29T06:26:40.392Z,14.29
2023-04-29T06:29:07.573Z,14.30
2023-04-29T06:31:35.154Z,14.29
2023-04-29T06:34:02.378Z,14.29
2023-04-29T06:36:29.684Z,14.33
2023-04-29T06:38:56.602Z,14.41
2023-04-29T06:41:23.888Z,14.48
2023-04-29T06:43:51.008Z,14.52
2023-04-29T06:46:18.383Z,14.57
2023-04-29T06:48:46.082Z,14.48
2023-04-29T06:51:13.480Z,14.47
2023-04-29T06:53:40.695Z,14.41
2023-04-29T06:56:08.230Z,14.56
2023-04-29T06:58:35.539Z,14.70
2023-04-29T07:01:04.303Z,14.68
2023-04-29T07:03:31.508Z,14.82
2023-04-29T07:05:58.915Z,14.92
2023-04-29T07:08:26.312Z,14.92
2023-04-29T07:10:58.285Z,14.96
2023-04-29T07:13:26.510Z,15.02
2023-04-29T07:15:53.867Z,15.09
2023-04-29T07:18:21.034Z,15.25
2023-04-29T07:20:49.759Z,15.34
2023-04-29T07:23:17.005Z,15.51
2023-04-29T07:25:44.718Z,15.61
2023-04-29T07:28:11.768Z,15.75
2023-04-29T07:30:39.277Z,15.87
2023-04-29T07:33:06.742Z,15.97
2023-04-29T07:35:34.184Z,15.96
2023-04-29T07:38:01.384Z,15.97
2023-04-29T07:40:29.073Z,16.04
2023-04-29T07:42:56.124Z,16.09
2023-04-29T07:45:23.789Z,16.12
2023-04-29T07:47:51.629Z,16.12
2023-04-29T07:50:19.016Z,15.82
2023-04-29T07:52:46.410Z,15.87
2023-04-29T07:55:14.730Z,15.99
2023-04-29T07:57:42.550Z,16.10
2023-04-29T08:00:10.979Z,16.17
2023-04-29T08:02:38.505Z,16.20
2023-04-29T08:05:06.274Z,16.22
2023-04-29T08:07:34.171Z,16.25
2023-04-29T08:10:01.567Z,16.41
2023-04-29T08:12:28.615Z,16.57
2023-04-29T08:14:55.762Z,16.77
2023-04-29T08:17:22.726Z,17.04
2023-04-29T08:19:50.044Z,17.10
2023-04-29T08:22:17.897Z,17.06
2023-04-29T08:24:45.372Z,17.15
2023-04-29T08:27:12.332Z,17.19
2023-04-29T08:29:39.579Z,17.11
2023-04-29T08:32:06.928Z,17.02
2023-04-29T08:34:36.319Z,17.08
2023-04-29T08:37:03.635Z,17.22
2023-04-29T08:39:31.607Z,17.47
2023-04-29T08:41:59.968Z,17.63
2023-04-29T08:44:27.963Z,17.71
2023-04-29T08:46:57.398Z,17.72
2023-04-29T08:49:24.662Z,17.73
2023-04-29T08:51:51.824Z,17.67
2023-04-29T08:54:19.129Z,17.63
2023-04-29T08:56:49.665Z,17.53
2023-04-29T08:59:18.544Z,17.42
2023-04-29T09:01:52.098Z,17.20
2023-04-29T09:04:42.002Z,16.96
2023-04-29T09:07:12.565Z,16.82
2023-04-29T09:09:41.497Z,16.77
2023-04-29T09:12:09.155Z,16.78
2023-04-29T09:14:37.937Z,16.79
2023-04-29T09:17:04.942Z,16.83
2023-04-29T09:19:35.026Z,16.97
2023-04-29T09:22:05.104Z,17.17
2023-04-29T09:24:32.384Z,17.31
2023-04-29T09:27:00.516Z,17.28
2023-04-29T09:29:27.720Z,17.24
2023-04-29T09:31:55.087Z,17.21
2023-04-29T09:34:37.465Z,17.12
2023-04-29T09:37:05.136Z,17.06
2023-04-29T09:39:40.047Z,17.06
2023-04-29T09:42:09.131Z,17.02
2023-04-29T09:44:36.511Z,17.01
2023-04-29T09:47:09.295Z,17.01
2023-04-29T09:49:46.120Z,16.99
2023-04-29T09:52:20.725Z,16.91
2023-04-29T09:54:48.014Z,16.98
2023-04-29T09:57:15.920Z,16.90
2023-04-29T09:59:43.971Z,16.82
2023-04-29T10:02:18.693Z,16.82
2023-04-29T10:04:51.921Z,16.79
2023-04-29T10:07:20.374Z,16.87
2023-04-29T10:09:48.952Z,17.02
2023-04-29T10:12:21.288Z,17.17
2023-04-29T10:15:12.319Z,17.33
2023-04-29T10:18:21.394Z,17.39
2023-04-29T10:20:49.347Z,17.40
2023-04-29T10:23:18.721Z,17.40
2023-04-29T10:25:48.640Z,17.46
2023-04-29T10:28:17.576Z,17.43
2023-04-29T10:30:45.704Z,17.44
2023-04-29T10:33:16.921Z,17.22
2023-04-29T10:35:47.859Z,17.12
2023-04-29T10:38:42.736Z,16.95
2023-04-29T10:41:23.205Z,16.86
2023-04-29T10:43:50.825Z,16.83
2023-04-29T10:46:20.893Z,16.75
2023-04-29T10:48:49.995Z,16.83
2023-04-29T10:51:45.382Z,16.77
2023-04-29T10:54:25.504Z,16.94
2023-04-29T10:56:54.474Z,17.00
2023-04-29T10:59:43.258Z,17.01
2023-04-29T11:02:11.171Z,17.19
2023-04-29T11:05:09.353Z,17.33
2023-04-29T11:07:36.936Z,17.48
2023-04-29T11:10:04.721Z,17.45
2023-04-29T11:12:31.969Z,17.49
2023-04-29T11:15:03.325Z,17.44
2023-04-29T11:17:38.765Z,17.43
2023-04-29T11:20:13.732Z,17.50
2023-04-29T11:22:41.142Z,17.48
2023-04-29T11:25:09.788Z,17.48
2023-04-29T11:27:40.350Z,17.50
2023-04-29T11:30:08.353Z,17.45
2023-04-29T11:32:45.807Z,17.37
2023-04-29T11:35:19.775Z,17.42
2023-04-29T11:37:47.738Z,17.44
2023-04-29T11:40:16.897Z,17.50
2023-04-29T11:42:49.704Z,17.58
2023-04-29T11:45:20.650Z,17.62
2023-04-29T11:47:49.473Z,17.75
2023-04-29T11:50:19.914Z,17.71
2023-04-29T11:52:49.244Z,17.81
2023-04-29T11:55:17.043Z,17.94
2023-04-29T11:57:44.489Z,18.01
2023-04-29T12:00:13.882Z,18.10
2023-04-29T12:02:49.187Z,18.17
2023-04-29T12:05:18.089Z,18.24
2023-04-29T12:07:45.394Z,18.24
2023-04-29T12:10:13.082Z,18.24
2023-04-29T12:12:46.724Z,18.04
2023-04-29T12:15:15.172Z,17.90
2023-04-29T12:17:44.323Z,17.94
2023-04-29T12:20:12.893Z,17.93
2023-04-29T12:22:41.572Z,17.98
2023-04-29T12:25:09.356Z,18.08
2023-04-29T12:27:39.675Z,18.13
2023-04-29T12:30:09.718Z,18.03
2023-04-29T12:32:37.476Z,18.16
2023-04-29T12:35:05.423Z,18.22
2023-04-29T12:37:33.777Z,18.19
2023-04-29T12:40:01.203Z,18.19
2023-04-29T12:42:34.405Z,18.10
2023-04-29T12:45:02.708Z,18.19
2023-04-29T12:47:37.237Z,18.21
2023-04-29T12:50:07.371Z,18.34
2023-04-29T12:52:36.601Z,18.23
2023-04-29T12:55:04.954Z,18.17
2023-04-29T12:57:32.103Z,18.08
2023-04-29T12:59:59.719Z,18.12
2023-04-29T13:02:26.892Z,18.10
2023-04-29T13:04:54.336Z,18.21
2023-04-29T13:07:21.711Z,18.26
2023-04-29T13:09:49.126Z,18.32
2023-04-29T13:12:16.840Z,18.37
2023-04-29T13:14:44.020Z,18.42
2023-04-29T13:17:11.402Z,18.19
2023-04-29T13:19:49.710Z,18.10
2023-04-29T13:22:18.838Z,17.98
2023-04-29T13:24:46.929Z,17.81
2023-04-29T13:27:13.955Z,17.91
2023-04-29T13:29:41.473Z,17.78
2023-04-29T13:32:08.903Z,17.76
2023-04-29T13:34:36.768Z,17.80
2023-04-29T13:37:03.701Z,17.72
2023-04-29T13:39:31.675Z,17.73
2023-04-29T13:41:59.656Z,17.69
2023-04-29T13:44:34.185Z,17.68
2023-04-29T13:47:06.903Z,17.68
2023-04-29T13:50:09.867Z,17.73
2023-04-29T13:55:14.941Z,17.77
2023-04-29T13:58:31.096Z,17.64
2023-04-29T14:00:55.136Z,17.66
2023-04-29T14:03:13.070Z,17.76
2023-04-29T14:05:42.030Z,17.77
2023-04-29T14:08:09.570Z,17.76
2023-04-29T14:10:37.131Z,17.68
2023-04-29T14:13:04.033Z,17.74
2023-04-29T14:15:31.357Z,17.81
2023-04-29T14:17:58.256Z,17.90
2023-04-29T14:20:25.529Z,17.86
2023-04-29T14:22:53.069Z,17.99
2023-04-29T14:25:20.192Z,17.82
2023-04-29T14:27:49.349Z,17.99
2023-04-29T14:30:16.541Z,17.95
2023-04-29T14:32:43.562Z,17.78
2023-04-29T14:35:11.169Z,17.90
2023-04-29T14:37:38.255Z,17.72
2023-04-29T14:40:06.569Z,17.72
2023-04-29T14:42:33.546Z,17.55
2023-04-29T14:45:00.904Z,17.50
2023-04-29T14:47:29.079Z,17.67
2023-04-29T14:49:56.517Z,17.63
2023-04-29T14:52:23.541Z,17.60
2023-04-29T14:54:51.891Z,17.64
2023-04-29T14:57:19.037Z,17.61
2023-04-29T14:59:46.374Z,17.74
2023-04-29T15:02:13.320Z,17.70
2023-04-29T15:04:45.661Z,17.63
2023-04-29T15:07:13.947Z,17.76
2023-04-29T15:09:42.152Z,17.81
2023-04-29T15:12:10.370Z,17.85
2023-04-29T15:14:38.001Z,17.78
2023-04-29T15:17:05.194Z,17.57
2023-04-29T15:19:32.331Z,17.39
2023-04-29T15:21:59.229Z,17.16
2023-04-29T15:24:26.382Z,17.20
2023-04-29T15:26:53.547Z,17.27
2023-04-29T15:29:20.798Z,17.04
2023-04-29T15:31:47.728Z,17.01
2023-04-29T15:34:15.018Z,17.02
2023-04-29T15:36:42.391Z,17.09
2023-04-29T15:39:13.004Z,17.03
2023-04-29T15:41:40.149Z,17.07
2023-04-29T15:44:07.474Z,17.00
2023-04-29T15:46:34.535Z,16.86
2023-04-29T15:49:02.537Z,16.79
2023-04-29T15:51:29.394Z,17.31
2023-04-29T15:53:56.531Z,17.67
2023-04-29T15:56:24.142Z,17.99
2023-04-29T15:58:51.433Z,18.23
2023-04-29T16:01:18.540Z,18.38
2023-04-29T16:03:45.734Z,18.59
2023-04-29T16:06:12.788Z,18.94
2023-04-29T16:08:39.962Z,19.31
2023-04-29T16:11:07.010Z,19.33
2023-04-29T16:13:36.288Z,19.49
2023-04-29T16:16:03.861Z,18.84
2023-04-29T16:18:33.034Z,18.39
2023-04-29T16:21:00.075Z,17.82
2023-04-29T16:23:27.293Z,17.44
2023-04-29T16:25:54.577Z,17.09
2023-04-29T16:28:21.717Z,17.32
2023-04-29T16:30:48.885Z,17.51
2023-04-29T16:33:16.454Z,17.79
2023-04-29T16:35:43.587Z,18.19
2023-04-29T16:38:11.473Z,18.30
2023-04-29T16:40:38.367Z,18.14
2023-04-29T16:43:05.735Z,18.27
2023-04-29T16:45:32.848Z,18.19
2023-04-29T16:48:01.675Z,18.35
2023-04-29T16:50:28.715Z,18.42
2023-04-29T16:52:55.893Z,18.19
2023-04-29T16:55:22.942Z,18.20
2023-04-29T16:57:50.077Z,18.08
2023-04-29T17:00:17.455Z,17.82
2023-04-29T17:02:47.020Z,17.68
2023-04-29T17:05:16.280Z,17.38
2023-04-29T17:07:43.582Z,16.98
2023-04-29T17:10:11.512Z,16.84
2023-04-29T17:12:39.457Z,16.41
2023-04-29T17:15:07.584Z,16.10
2023-04-29T17:17:35.097Z,15.88
2023-04-29T17:20:02.386Z,15.79
2023-04-29T17:22:29.953Z,15.70
2023-04-29T17:24:57.013Z,15.60
2023-04-29T17:27:24.494Z,15.45
2023-04-29T17:29:52.861Z,15.38
2023-04-29T17:32:28.231Z,15.31
2023-04-29T17:34:59.510Z,15.30
2023-04-29T17:37:27.096Z,15.13
2023-04-29T17:39:54.377Z,15.11
2023-04-29T17:42:21.713Z,15.00
2023-04-29T17:44:48.680Z,14.95
2023-04-29T17:47:17.416Z,14.77
2023-04-29T17:49:45.090Z,14.70
2023-04-29T17:52:13.205Z,14.64
2023-04-29T17:54:41.588Z,14.60
2023-04-29T17:57:09.524Z,14.51
2023-04-29T17:59:36.460Z,14.42
2023-04-29T18:02:04.256Z,14.45
2023-04-29T18:04:31.217Z,14.41
2023-04-29T18:06:58.542Z,14.38
2023-04-29T18:09:26.545Z,14.22
2023-04-29T18:11:53.907Z,14.05
2023-04-29T18:14:20.813Z,14.08
2023-04-29T18:16:48.108Z,14.09
2023-04-29T18:19:15.099Z,14.05
2023-04-29T18:21:42.304Z,14.03
2023-04-29T18:24:09.217Z,14.05
2023-04-29T18:26:36.477Z,14.02
2023-04-29T18:29:04.390Z,14.00
2023-04-29T18:31:31.644Z,13.97
2023-04-29T18:33:58.618Z,13.94
2023-04-29T18:36:26.570Z,13.87
2023-04-29T18:38:53.572Z,13.93
2023-04-29T18:41:20.789Z,13.94
2023-04-29T18:43:47.715Z,13.92
2023-04-29T18:46:15.415Z,13.91
2023-04-29T18:48:42.336Z,13.93
2023-04-29T18:51:09.701Z,13.91
2023-04-29T18:53:36.695Z,13.87
2023-04-29T18:56:04.340Z,13.83
2023-04-29T18:58:31.404Z,13.81
2023-04-29T19:01:02.391Z,13.78
2023-04-29T19:03:29.441Z,13.81
2023-04-29T19:05:57.122Z,13.79
2023-04-29T19:08:24.460Z,13.80
2023-04-29T19:10:53.499Z,13.82
2023-04-29T19:13:20.700Z,13.91
2023-04-29T19:15:50.879Z,13.96
2023-04-29T19:18:20.161Z,14.04
2023-04-29T19:20:48.781Z,14.04
2023-04-29T19:23:16.013Z,14.06
2023-04-29T19:25:44.056Z,14.05
2023-04-29T19:28:10.941Z,14.05
2023-04-29T19:30:38.234Z,13.97
2023-04-29T19:33:05.232Z,14.00
2023-04-29T19:35:32.539Z,13.90
2023-04-29T19:37:59.421Z,13.88
2023-04-29T19:40:26.834Z,13.92
2023-04-29T19:42:53.742Z,13.97
2023-04-29T19:45:21.150Z,13.91
2023-04-29T19:47:49.954Z,13.84
2023-04-29T19:50:17.390Z,13.78
2023-04-29T19:52:44.404Z,13.78
2023-04-29T19:55:11.606Z,13.74
2023-04-29T19:57:38.817Z,13.69
2023-04-29T20:00:07.051Z,13.73
2023-04-29T20:02:34.857Z,13.73
2023-04-29T20:05:02.243Z,13.59
2023-04-29T20:07:29.218Z,13.61
2023-04-29T20:09:56.685Z,13.62
2023-04-29T20:12:23.899Z,13.60
2023-04-29T20:14:53.399Z,13.60
2023-04-29T20:17:20.672Z,13.62
2023-04-29T20:19:47.933Z,13.66
2023-04-29T20:22:14.965Z,13.69
2023-04-29T20:24:42.398Z,13.70
2023-04-29T20:27:09.529Z,13.71
2023-04-29T20:29:37.445Z,13.71
2023-04-29T20:32:05.952Z,13.70
2023-04-29T20:34:33.287Z,13.67
2023-04-29T20:37:00.199Z,13.65
2023-04-29T20:39:27.584Z,13.61
2023-04-29T20:41:57.024Z,13.56
2023-04-29T20:44:25.476Z,13.58
2023-04-29T20:46:53.132Z,13.59
2023-04-29T20:49:20.456Z,13.51
2023-04-29T20:51:49.329Z,13.56
2023-04-29T20:54:16.918Z,13.46
2023-04-29T20:56:43.863Z,13.45
2023-04-29T20:59:11.207Z,13.43
2023-04-29T21:01:38.224Z,13.43
2023-04-29T21:04:05.991Z,13.40
2023-04-29T21:06:33.735Z,13.45
2023-04-29T21:09:01.689Z,13.43
2023-04-29T21:11:28.689Z,13.44
2023-04-29T21:13:55.939Z,13.47
2023-04-29T21:16:23.122Z,13.46
2023-04-29T21:18:50.414Z,13.44
2023-04-29T21:21:17.406Z,13.42
2023-04-29T21:23:44.633Z,13.40
2023-04-29T21:26:11.728Z,13.41
2023-04-29T21:28:38.953Z,13.35
2023-04-29T21:31:05.962Z,13.39
2023-04-29T21:33:33.179Z,13.39
2023-04-29T21:36:00.256Z,13.36
2023-04-29T21:38:28.161Z,13.33
2023-04-29T21:41:00.673Z,13.32
2023-04-29T21:43:28.461Z,13.32
2023-04-29T21:45:55.806Z,13.27
2023-04-29T21:48:25.177Z,13.24
2023-04-29T21:50:52.062Z,13.22
2023-04-29T21:53:19.322Z,13.23
2023-04-29T21:55:46.572Z,13.24
2023-04-29T21:58:14.152Z,13.21
2023-04-29T22:00:47.954Z,13.19
2023-04-29T22:03:15.419Z,13.14
2023-04-29T22:05:42.483Z,13.13
2023-04-29T22:08:09.875Z,13.15
2023-04-29T22:10:40.135Z,13.13
2023-04-29T22:13:08.275Z,13.13
2023-04-29T22:15:35.211Z,13.11
2023-04-29T22:18:02.442Z,13.14
2023-04-29T22:20:29.378Z,13.12
2023-04-29T22:22:56.994Z,13.15
2023-04-29T22:25:24.007Z,13.14
2023-04-29T22:27:52.059Z,13.18
2023-04-29T22:30:19.812Z,13.18
2023-04-29T22:32:47.092Z,13.19
2023-04-29T22:35:14.090Z,13.20
2023-04-29T22:37:41.344Z,13.20
2023-04-29T22:40:09.303Z,13.19
2023-04-29T22:42:36.470Z,13.14
2023-04-29T22:45:03.849Z,13.13
2023-04-29T22:47:31.200Z,13.12
2023-04-29T22:49:58.389Z,13.11
2023-04-29T22:52:27.092Z,13.12
2023-04-29T22:54:53.999Z,13.12
2023-04-29T22:57:21.270Z,13.09
2023-04-29T22:59:49.160Z,13.11
2023-04-29T23:02:16.325Z,13.14
2023-04-29T23:04:43.249Z,13.14
2023-04-29T23:07:10.695Z,13.14
2023-04-29T23:09:37.640Z,13.14
2023-04-29T23:12:05.323Z,13.16
2023-04-29T23:14:32.334Z,13.16
2023-04-29T23:16:59.532Z,13.15
2023-04-29T23:19:26.360Z,13.19
2023-04-29T23:21:53.599Z,13.15
2023-04-29T23:24:20.544Z,13.13
2023-04-29T23:26:48.205Z,13.14
2023-04-29T23:29:15.807Z,13.14
2023-04-29T23:31:44.787Z,13.12
2023-04-29T23:34:13.230Z,13.14
2023-04-29T23:36:40.626Z,13.15
2023-04-29T23:39:07.565Z,13.16
2023-04-29T23:41:34.691Z,13.16
2023-04-29T23:44:02.427Z,13.19
2023-04-29T23:46:30.765Z,13.20
2023-04-29T23:48:57.683Z,13.22
2023-04-29T23:51:26.265Z,13.21
2023-04-29T23:53:53.178Z,13.22
2023-04-29T23:56:20.440Z,13.20
2023-04-29T23:58:47.303Z,13.20
